Time;durP1;ratioP1;P1;durP2;ratioP2;P2;SDS_P1;SDS_P2;PMS_P1;PMS_P2;Temp;Humidity;BMP_temperature;BMP_pressure;BME280_temperature;BME280_humidity;BME280_pressure;Samples;Min_cycle;Max_cycle;Signal;HPM_P1;HPM_P2
2021/08/31 00:01:04;;;;;;;7.38;5.78;;;20.40;73.50;;;;;;10335188;28;20042;-56
2021/08/31 00:06:04;;;;;;;7.03;6.32;;;20.40;73.50;;;;;;10361130;28;20463;-56
2021/08/31 00:11:05;;;;;;;7.72;5.75;;;20.40;73.40;;;;;;10336591;28;20058;-55
2021/08/31 00:16:06;;;;;;;7.22;6.00;;;20.40;73.50;;;;;;10335714;28;20402;-55
2021/08/31 00:21:06;;;;;;;7.57;6.43;;;20.40;73.40;;;;;;10346583;28;20034;-56
2021/08/31 00:26:08;;;;;;;6.90;6.03;;;20.40;73.40;;;;;;10346062;28;20053;-56
2021/08/31 00:31:08;;;;;;;6.45;5.35;;;20.40;73.30;;;;;;10337370;28;20052;-56
2021/08/31 00:36:09;;;;;;;10.45;6.40;;;20.40;73.40;;;;;;10335195;28;20044;-56
2021/08/31 00:41:10;;;;;;;5.68;4.97;;;20.40;73.40;;;;;;10334576;28;20039;-55
2021/08/31 00:46:13;;;;;;;9.13;6.72;;;20.40;73.40;;;;;;10335054;28;20092;-51
2021/08/31 00:51:15;;;;;;;8.05;6.32;;;20.40;73.20;;;;;;10343805;28;20554;-55
2021/08/31 00:56:17;;;;;;;7.53;6.15;;;20.40;73.10;;;;;;10334519;28;20073;-56
2021/08/31 01:01:18;;;;;;;8.05;6.40;;;20.40;73.10;;;;;;10332990;28;20022;-56
2021/08/31 01:06:18;;;;;;;7.20;6.50;;;20.40;73.10;;;;;;10338616;28;20038;-56
2021/08/31 01:11:19;;;;;;;6.72;6.03;;;20.40;73.10;;;;;;10338947;28;20080;-56
2021/08/31 01:16:20;;;;;;;6.65;5.95;;;20.40;73.10;;;;;;10337121;28;20117;-56
2021/08/31 01:21:21;;;;;;;7.10;6.40;;;20.40;73.10;;;;;;10346926;28;20023;-56
2021/08/31 01:26:21;;;;;;;8.60;6.20;;;20.40;73.10;;;;;;10345766;28;20121;-54
2021/08/31 01:31:22;;;;;;;8.60;7.25;;;20.40;73.10;;;;;;10372566;28;20030;-56
2021/08/31 01:36:25;;;;;;;7.22;6.50;;;20.40;73.10;;;;;;10340040;28;20101;-56
2021/08/31 01:41:27;;;;;;;6.97;6.28;;;20.30;73.00;;;;;;10332883;28;20022;-56
2021/08/31 01:46:29;;;;;;;7.45;6.25;;;20.40;73.10;;;;;;10333362;28;20057;-56
2021/08/31 01:51:29;;;;;;;8.23;7.30;;;20.30;73.00;;;;;;10332706;28;20030;-56
2021/08/31 01:56:30;;;;;;;7.30;6.60;;;20.30;73.00;;;;;;10332017;28;20044;-56
2021/08/31 02:01:31;;;;;;;8.63;6.75;;;20.40;73.00;;;;;;10332709;28;20117;-56
2021/08/31 02:06:31;;;;;;;7.97;6.50;;;20.30;72.90;;;;;;10355690;28;20084;-55
2021/08/31 02:11:32;;;;;;;8.02;6.47;;;20.30;72.80;;;;;;10373073;28;20375;-56
2021/08/31 02:16:33;;;;;;;7.93;6.65;;;20.30;72.70;;;;;;10355273;28;20061;-56
2021/08/31 02:21:34;;;;;;;8.63;7.15;;;20.30;72.80;;;;;;10342794;28;20383;-55
2021/08/31 02:26:34;;;;;;;7.90;6.95;;;20.30;72.80;;;;;;10345363;28;20034;-56
2021/08/31 02:31:35;;;;;;;7.43;6.63;;;20.30;72.80;;;;;;10334588;28;20121;-56
2021/08/31 02:36:36;;;;;;;6.88;6.07;;;20.30;72.80;;;;;;10345859;28;20127;-55
2021/08/31 02:41:37;;;;;;;8.57;6.63;;;20.30;72.90;;;;;;10339115;28;20133;-56
2021/08/31 02:46:37;;;;;;;8.25;7.07;;;20.30;72.70;;;;;;10343014;28;20037;-56
2021/08/31 02:51:38;;;;;;;8.25;7.20;;;20.30;72.80;;;;;;10345975;28;20069;-56
2021/08/31 02:56:39;;;;;;;7.50;6.78;;;20.30;72.90;;;;;;10359319;28;20060;-56
2021/08/31 03:06:59;;;;;;;8.35;7.38;;;20.30;72.90;;;;;;10342320;28;20042;-56
2021/08/31 03:12:01;;;;;;;8.82;6.88;;;20.30;72.90;;;;;;10339005;28;20504;-55
2021/08/31 03:17:02;;;;;;;7.88;6.75;;;20.30;72.80;;;;;;10342644;28;20027;-56
2021/08/31 03:22:05;;;;;;;7.65;6.80;;;20.30;72.80;;;;;;10348275;28;20109;-56
2021/08/31 03:27:06;;;;;;;7.60;6.70;;;20.30;72.90;;;;;;10337627;28;20132;-56
2021/08/31 03:32:07;;;;;;;7.95;6.70;;;20.30;72.90;;;;;;10345817;28;20026;-55
2021/08/31 03:37:08;;;;;;;7.53;6.82;;;20.20;72.90;;;;;;10336359;28;20092;-56
2021/08/31 03:42:08;;;;;;;8.52;6.43;;;20.30;73.00;;;;;;10335435;28;20629;-52
2021/08/31 03:47:09;;;;;;;8.35;6.57;;;20.20;73.00;;;;;;10340443;28;20036;-55
2021/08/31 03:52:10;;;;;;;8.25;6.40;;;20.20;72.90;;;;;;10335485;28;20062;-55
2021/08/31 03:57:10;;;;;;;8.77;6.95;;;20.20;73.00;;;;;;10374881;28;20038;-55
2021/08/31 04:02:11;;;;;;;7.57;6.75;;;20.20;72.90;;;;;;10336301;28;20364;-55
2021/08/31 04:07:12;;;;;;;7.38;6.55;;;20.20;73.00;;;;;;10364688;28;20057;-56
2021/08/31 04:12:13;;;;;;;9.15;7.15;;;20.20;73.00;;;;;;10375989;28;20104;-55
2021/08/31 04:17:14;;;;;;;9.57;6.90;;;20.20;73.10;;;;;;10347724;28;20034;-56
2021/08/31 04:22:15;;;;;;;7.35;6.15;;;20.20;72.90;;;;;;10344177;28;20022;-56
2021/08/31 04:27:16;;;;;;;7.15;6.05;;;20.20;72.90;;;;;;10354058;28;20425;-56
2021/08/31 04:32:16;;;;;;;8.07;6.70;;;20.20;72.80;;;;;;10359525;28;20034;-55
2021/08/31 04:37:17;;;;;;;8.05;5.68;;;20.20;72.90;;;;;;10346574;28;20026;-56
2021/08/31 04:42:17;;;;;;;7.72;5.95;;;20.20;73.00;;;;;;10338072;28;20069;-56
2021/08/31 04:47:19;;;;;;;7.30;6.57;;;20.20;73.00;;;;;;10362482;28;20062;-56
2021/08/31 04:52:20;;;;;;;8.02;6.32;;;20.20;73.10;;;;;;10350278;28;20470;-55
2021/08/31 04:57:21;;;;;;;7.22;6.28;;;20.20;73.10;;;;;;10345517;28;20084;-56
2021/08/31 05:02:21;;;;;;;8.02;6.72;;;20.20;73.10;;;;;;10339794;28;20069;-56
2021/08/31 05:07:22;;;;;;;6.75;5.65;;;20.20;73.20;;;;;;10352124;28;20061;-55
2021/08/31 05:12:23;;;;;;;7.80;6.47;;;20.20;73.10;;;;;;10335093;28;20069;-56
2021/08/31 05:17:24;;;;;;;8.02;5.93;;;20.20;73.20;;;;;;10341212;28;20045;-56
2021/08/31 05:22:26;;;;;;;8.88;5.68;;;20.20;73.10;;;;;;10347322;28;20525;-56
2021/08/31 05:27:28;;;;;;;7.63;5.50;;;20.10;73.00;;;;;;10355082;28;20042;-56
2021/08/31 05:32:29;;;;;;;12.85;6.72;;;20.10;72.80;;;;;;10362196;28;20034;-57
2021/08/31 05:37:29;;;;;;;15.52;6.47;;;20.20;73.70;;;;;;10339582;28;20058;-57
2021/08/31 05:42:30;;;;;;;13.73;5.95;;;20.20;73.90;;;;;;10349752;28;20513;-58
2021/08/31 05:47:31;;;;;;;13.23;6.43;;;20.20;74.00;;;;;;10342894;28;20438;-57
2021/08/31 05:52:31;;;;;;;11.40;6.07;;;20.30;74.20;;;;;;10343472;28;20048;-57
2021/08/31 05:57:32;;;;;;;11.90;6.38;;;20.30;74.60;;;;;;10346761;28;20038;-55
2021/08/31 06:02:33;;;;;;;14.10;7.13;;;20.30;74.60;;;;;;10343783;28;20050;-56
2021/08/31 06:07:34;;;;;;;14.63;6.43;;;20.30;74.60;;;;;;10368258;28;20037;-56
2021/08/31 06:12:35;;;;;;;16.67;6.57;;;20.30;74.30;;;;;;10365178;28;20033;-56
2021/08/31 06:17:39;;;;;;;14.27;6.68;;;20.30;74.60;;;;;;10345122;28;20033;-56
2021/08/31 06:22:39;;;;;;;15.02;6.22;;;20.30;74.30;;;;;;10348265;28;20038;-57
2021/08/31 06:27:40;;;;;;;9.43;6.47;;;20.30;74.50;;;;;;10353907;28;20495;-56
2021/08/31 06:32:41;;;;;;;10.93;5.50;;;20.30;74.40;;;;;;10352992;28;20379;-56
2021/08/31 06:37:42;;;;;;;13.40;6.45;;;20.30;74.10;;;;;;10350298;28;20172;-56
2021/08/31 06:42:43;;;;;;;19.60;6.00;;;20.30;74.50;;;;;;10352303;28;20456;-55
2021/08/31 06:47:43;;;;;;;15.48;6.35;;;20.30;74.70;;;;;;10359735;28;20083;-56
2021/08/31 06:52:46;;;;;;;11.68;6.03;;;20.30;74.40;;;;;;10356285;28;20030;-55
2021/08/31 06:57:47;;;;;;;14.18;6.50;;;20.30;74.50;;;;;;10345882;28;20038;-54
2021/08/31 07:02:48;;;;;;;13.63;6.45;;;20.30;74.10;;;;;;10345314;28;20042;-53
2021/08/31 07:07:48;;;;;;;10.35;5.95;;;20.30;74.20;;;;;;10352263;28;20034;-55
2021/08/31 07:12:49;;;;;;;7.70;5.60;;;20.20;74.20;;;;;;10345172;28;20398;-54
2021/08/31 07:17:50;;;;;;;14.00;6.35;;;20.30;74.30;;;;;;10359650;28;20662;-56
2021/08/31 07:22:50;;;;;;;11.48;5.75;;;20.30;74.80;;;;;;10339010;28;20070;-55
2021/08/31 07:27:51;;;;;;;9.25;5.90;;;20.20;74.10;;;;;;10351558;28;20100;-56
2021/08/31 07:32:52;;;;;;;14.80;6.20;;;20.20;74.50;;;;;;10348381;28;20041;-55
2021/08/31 07:37:52;;;;;;;15.30;7.00;;;20.20;74.00;;;;;;10338664;28;20206;-54
2021/08/31 07:42:53;;;;;;;7.40;5.50;;;20.20;73.90;;;;;;10347234;28;20128;-55
2021/08/31 07:47:54;;;;;;;10.32;5.60;;;20.20;74.00;;;;;;10347993;28;20026;-55
2021/08/31 07:52:54;;;;;;;9.52;6.63;;;20.20;73.80;;;;;;10337725;28;20117;-55
2021/08/31 07:57:55;;;;;;;11.20;6.20;;;20.20;73.90;;;;;;10346842;28;20030;-54
2021/08/31 08:02:56;;;;;;;8.35;5.47;;;20.20;73.80;;;;;;10341542;28;20030;-55
2021/08/31 08:07:57;;;;;;;9.07;5.65;;;20.20;73.70;;;;;;10374149;28;20026;-55
2021/08/31 08:12:58;;;;;;;9.88;5.80;;;20.20;73.90;;;;;;10349347;28;20076;-54
2021/08/31 08:17:59;;;;;;;10.15;5.80;;;20.20;73.90;;;;;;10346892;28;20057;-55
2021/08/31 08:23:00;;;;;;;7.13;4.97;;;20.20;74.00;;;;;;10357556;28;20088;-55
2021/08/31 08:28:01;;;;;;;6.85;4.57;;;20.20;73.80;;;;;;10369206;28;20049;-55
2021/08/31 08:33:02;;;;;;;10.50;5.97;;;20.20;73.80;;;;;;10341594;28;20038;-55
2021/08/31 08:38:02;;;;;;;8.38;5.18;;;20.20;73.60;;;;;;10334453;28;20037;-55
2021/08/31 08:43:05;;;;;;;6.28;4.80;;;20.20;73.70;;;;;;10334514;28;20058;-55
2021/08/31 08:48:06;;;;;;;6.90;4.97;;;20.20;73.70;;;;;;10336377;28;20368;-55
2021/08/31 08:53:06;;;;;;;7.40;5.43;;;20.20;73.70;;;;;;10340764;28;20120;-55
2021/08/31 08:58:07;;;;;;;7.75;4.70;;;20.20;73.60;;;;;;10345505;28;20152;-56
2021/08/31 09:03:18;;;;;;;7.28;5.13;;;20.20;73.70;;;;;;10345921;28;20145;-55
2021/08/31 09:08:22;;;;;;;7.70;5.10;;;20.20;73.70;;;;;;10369426;28;20026;-55
2021/08/31 09:13:23;;;;;;;7.32;5.47;;;20.20;73.60;;;;;;10346677;28;20033;-55
2021/08/31 09:18:25;;;;;;;7.85;5.10;;;20.20;73.60;;;;;;10345329;28;20112;-55
2021/08/31 09:23:35;;;;;;;6.65;5.00;;;20.20;73.60;;;;;;10349088;28;20069;-55
2021/08/31 09:28:39;;;;;;;6.00;5.05;;;20.20;73.60;;;;;;10364347;28;20531;-55
2021/08/31 09:33:44;;;;;;;6.70;4.85;;;20.20;73.70;;;;;;10349577;28;20026;-55
2021/08/31 09:38:52;;;;;;;5.82;4.55;;;20.20;73.70;;;;;;10351129;28;20042;-55
2021/08/31 09:43:53;;;;;;;6.80;3.93;;;20.20;73.70;;;;;;10350507;28;20634;-58
2021/08/31 09:48:53;;;;;;;5.78;4.18;;;20.20;73.80;;;;;;10351443;28;20365;-58
2021/08/31 09:53:54;;;;;;;9.60;5.15;;;20.30;73.80;;;;;;10330905;28;20370;-56
2021/08/31 09:58:59;;;;;;;11.05;5.40;;;20.40;73.90;;;;;;10350194;28;20430;-58
2021/08/31 10:03:59;;;;;;;12.82;5.72;;;20.40;74.00;;;;;;10357634;28;20084;-57
2021/08/31 10:09:00;;;;;;;9.88;6.32;;;20.40;74.00;;;;;;10342981;28;20034;-56
2021/08/31 10:14:01;;;;;;;13.20;6.93;;;20.40;74.20;;;;;;10341517;28;20034;-58
2021/08/31 10:19:02;;;;;;;12.50;6.07;;;20.50;74.30;;;;;;10344610;28;20034;-59
2021/08/31 10:24:05;;;;;;;11.65;5.75;;;20.60;74.10;;;;;;10339274;28;20375;-58
2021/08/31 10:29:25;;;;;;;21.27;5.82;;;20.60;74.20;;;;;;10323895;28;20034;-59
2021/08/31 10:34:32;;;;;;;10.52;5.75;;;20.70;74.10;;;;;;10346695;28;20102;-58
2021/08/31 10:39:56;;;;;;;18.58;6.55;;;20.70;74.10;;;;;;10336213;28;20057;-55
2021/08/31 10:45:05;;;;;;;32.78;7.03;;;20.70;73.90;;;;;;10335394;28;20046;-58
2021/08/31 10:50:08;;;;;;;;;;;20.70;74.30;;;;;;10332678;28;20026;-58
2021/08/31 10:55:24;;;;;;;10.82;5.15;;;20.80;73.90;;;;;;10362989;28;19950;-56
2021/08/31 11:00:24;;;;;;;13.60;5.82;;;20.70;73.80;;;;;;10344425;28;20034;-55
2021/08/31 11:05:31;;;;;;;19.13;5.68;;;20.70;73.80;;;;;;10383038;28;20099;-57
2021/08/31 11:10:33;;;;;;;11.48;6.03;;;20.70;74.10;;;;;;10361065;28;20113;-54
2021/08/31 11:15:34;;;;;;;11.85;5.20;;;20.70;73.90;;;;;;10338188;28;20033;-54
2021/08/31 11:20:38;;;;;;;11.55;4.70;;;20.70;73.80;;;;;;10348636;28;20034;-55
2021/08/31 11:25:48;;;;;;;13.98;5.32;;;20.80;73.60;;;;;;10344732;28;20030;-55
2021/08/31 11:30:57;;;;;;;7.70;4.65;;;20.80;73.60;;;;;;10361769;28;20041;-55
2021/08/31 11:36:09;;;;;;;11.68;5.07;;;20.80;73.70;;;;;;10343237;28;20064;-56
2021/08/31 11:41:22;;;;;;;14.05;5.25;;;20.80;73.40;;;;;;10348185;28;20159;-55
2021/08/31 11:46:29;;;;;;;9.70;5.60;;;20.80;73.60;;;;;;10339385;28;20030;-53
2021/08/31 11:51:30;;;;;;;12.50;5.03;;;20.80;73.60;;;;;;10345430;28;20033;-55
2021/08/31 11:56:31;;;;;;;10.25;5.07;;;20.80;73.40;;;;;;10348451;28;20112;-53
2021/08/31 12:01:35;;;;;;;10.80;5.47;;;20.80;74.40;;;;;;10348560;28;20030;-55
2021/08/31 12:06:37;;;;;;;9.57;5.13;;;20.80;74.40;;;;;;10348267;28;20375;-55
2021/08/31 12:11:38;;;;;;;6.70;5.18;;;20.90;74.30;;;;;;10334628;28;20089;-55
2021/08/31 12:16:39;;;;;;;8.38;5.30;;;20.80;74.10;;;;;;10346335;28;20037;-55
2021/08/31 12:21:39;;;;;;;11.40;4.55;;;20.90;74.00;;;;;;10349345;28;20033;-56
2021/08/31 12:26:40;;;;;;;9.13;4.70;;;20.90;74.00;;;;;;10366745;28;20034;-56
2021/08/31 12:31:41;;;;;;;9.00;4.97;;;20.90;74.10;;;;;;10355392;28;20027;-56
2021/08/31 12:36:42;;;;;;;5.85;4.88;;;20.90;73.80;;;;;;10335381;28;20045;-55
2021/08/31 12:41:44;;;;;;;10.00;4.82;;;20.90;73.70;;;;;;10332344;28;20122;-57
2021/08/31 12:46:45;;;;;;;9.55;4.93;;;20.90;73.80;;;;;;10345082;28;20099;-55
2021/08/31 12:51:50;;;;;;;8.15;4.50;;;20.90;74.00;;;;;;10347844;28;20414;-56
2021/08/31 12:56:57;;;;;;;11.93;5.13;;;20.90;74.00;;;;;;10344661;28;20034;-54
2021/08/31 13:01:58;;;;;;;11.93;5.65;;;21.00;74.10;;;;;;10347492;28;20157;-56
2021/08/31 13:07:08;;;;;;;16.80;5.78;;;21.00;73.90;;;;;;10346612;28;20189;-55
2021/08/31 13:12:17;;;;;;;8.48;4.75;;;21.00;73.90;;;;;;10330122;28;20068;-56
2021/08/31 13:17:18;;;;;;;14.07;5.47;;;21.00;73.70;;;;;;10353072;28;20030;-57
2021/08/31 13:22:22;;;;;;;8.32;4.55;;;21.00;74.00;;;;;;10341848;28;20372;-57
2021/08/31 13:27:22;;;;;;;8.50;4.60;;;21.00;73.90;;;;;;10353704;28;20028;-57
2021/08/31 13:32:23;;;;;;;10.25;5.60;;;21.10;74.00;;;;;;10360038;28;20121;-58
2021/08/31 13:37:23;;;;;;;17.98;5.25;;;21.10;73.90;;;;;;10339313;28;20066;-58
2021/08/31 13:42:24;;;;;;;12.15;4.95;;;21.10;74.00;;;;;;10346227;28;20138;-58
2021/08/31 13:47:25;;;;;;;15.05;5.40;;;21.10;74.20;;;;;;10347809;28;20062;-58
2021/08/31 13:52:25;;;;;;;8.45;4.32;;;21.10;74.00;;;;;;10364178;28;20057;-57
2021/08/31 13:57:29;;;;;;;7.03;4.28;;;21.10;74.00;;;;;;10343983;28;20038;-58
2021/08/31 14:02:30;;;;;;;8.57;4.60;;;21.10;74.00;;;;;;10335395;28;20423;-58
2021/08/31 14:07:31;;;;;;;8.13;5.28;;;21.10;73.70;;;;;;10367096;28;20038;-58
2021/08/31 14:12:32;;;;;;;6.72;5.35;;;21.10;73.80;;;;;;10332422;28;20034;-58
2021/08/31 14:17:33;;;;;;;8.00;5.57;;;21.10;73.80;;;;;;10336342;28;20118;-58
2021/08/31 14:22:33;;;;;;;9.40;5.38;;;21.10;73.70;;;;;;10337859;28;20186;-57
2021/08/31 14:27:34;;;;;;;5.88;4.25;;;21.10;73.60;;;;;;10343339;28;20093;-59
2021/08/31 14:32:35;;;;;;;12.93;4.53;;;21.10;73.50;;;;;;10339899;28;20557;-57
2021/08/31 14:37:35;;;;;;;9.55;4.75;;;21.10;73.10;;;;;;10340187;28;20356;-57
2021/08/31 14:42:38;;;;;;;9.32;4.25;;;21.10;72.90;;;;;;10339386;28;20162;-60
2021/08/31 14:47:40;;;;;;;7.50;5.28;;;21.10;72.70;;;;;;10339816;28;20142;-57
2021/08/31 14:52:41;;;;;;;7.90;4.43;;;21.10;72.60;;;;;;10352243;28;20026;-58
2021/08/31 14:57:42;;;;;;;9.90;5.18;;;21.10;72.50;;;;;;10346987;28;20034;-59
2021/08/31 15:02:43;;;;;;;8.05;5.05;;;21.10;72.40;;;;;;10352457;28;20030;-59
2021/08/31 15:07:44;;;;;;;11.85;4.95;;;21.10;72.30;;;;;;10351030;28;20026;-59
2021/08/31 15:12:44;;;;;;;8.63;4.95;;;21.10;72.20;;;;;;10360625;28;20084;-58
2021/08/31 15:17:45;;;;;;;22.83;6.75;;;21.10;72.80;;;;;;10354947;28;20038;-58
2021/08/31 15:22:46;;;;;;;15.98;5.18;;;21.10;73.20;;;;;;10342149;28;20030;-57
2021/08/31 15:27:46;;;;;;;8.98;5.20;;;21.10;73.20;;;;;;10370245;28;20149;-57
2021/08/31 15:32:51;;;;;;;7.80;4.72;;;21.10;73.10;;;;;;10350291;28;20068;-58
2021/08/31 15:37:53;;;;;;;12.80;5.65;;;21.10;72.90;;;;;;10347983;28;20058;-57
2021/08/31 15:42:55;;;;;;;11.82;5.40;;;21.10;72.90;;;;;;10336798;28;20499;-58
2021/08/31 15:47:56;;;;;;;10.38;5.32;;;21.10;73.00;;;;;;10348558;28;20429;-58
2021/08/31 15:52:57;;;;;;;9.57;4.88;;;21.10;73.00;;;;;;10336539;28;20022;-58
2021/08/31 15:57:58;;;;;;;5.72;4.28;;;21.10;73.00;;;;;;10349023;28;20117;-57
2021/08/31 16:02:58;;;;;;;11.82;4.93;;;21.10;72.80;;;;;;10369861;28;20065;-57
2021/08/31 16:07:59;;;;;;;8.75;4.88;;;21.10;73.00;;;;;;10353086;28;20390;-58
2021/08/31 16:13:00;;;;;;;12.27;5.30;;;21.10;74.10;;;;;;10345979;28;20549;-58
2021/08/31 16:18:01;;;;;;;9.15;5.50;;;21.20;75.50;;;;;;10351082;28;20117;-58
2021/08/31 16:23:02;;;;;;;12.20;5.30;;;21.20;75.50;;;;;;10335762;28;20157;-58
2021/08/31 16:28:03;;;;;;;11.98;5.07;;;21.30;75.30;;;;;;10353669;28;20034;-61
2021/08/31 16:33:04;;;;;;;12.13;4.60;;;21.30;74.90;;;;;;10361716;28;20121;-59
2021/08/31 16:38:05;;;;;;;8.02;5.40;;;21.30;75.20;;;;;;10357512;28;20116;-59
2021/08/31 16:43:06;;;;;;;9.98;4.80;;;21.30;74.80;;;;;;10352765;28;20046;-58
2021/08/31 16:48:07;;;;;;;14.27;5.65;;;21.30;74.80;;;;;;10340388;28;20033;-59
2021/08/31 16:53:07;;;;;;;13.10;5.82;;;21.30;74.40;;;;;;10333767;28;20117;-58
2021/08/31 16:58:10;;;;;;;15.02;6.15;;;21.30;74.20;;;;;;10349547;28;20066;-58
2021/08/31 17:03:11;;;;;;;13.38;5.30;;;21.30;74.40;;;;;;10349117;28;20073;-60
2021/08/31 17:08:12;;;;;;;21.83;5.88;;;21.30;74.30;;;;;;10342294;28;20034;-59
2021/08/31 17:13:13;;;;;;;26.35;12.20;;;21.30;74.60;;;;;;10345981;28;20045;-52
2021/08/31 17:18:15;;;;;;;26.70;14.90;;;21.30;75.50;;;;;;10345621;28;20111;-53
2021/08/31 17:23:19;;;;;;;20.10;8.55;;;21.20;76.20;;;;;;10360557;28;20116;-55
2021/08/31 17:28:20;;;;;;;21.08;9.88;;;21.20;75.00;;;;;;10358607;28;20416;-54
2021/08/31 17:33:21;;;;;;;18.33;10.10;;;21.20;74.60;;;;;;10332251;28;20035;-54
2021/08/31 17:38:22;;;;;;;23.25;8.15;;;21.20;74.80;;;;;;10334169;28;20383;-55
2021/08/31 17:43:23;;;;;;;18.70;7.78;;;21.20;74.50;;;;;;10353472;28;20577;-57
2021/08/31 17:48:24;;;;;;;17.90;7.75;;;21.20;74.60;;;;;;10355655;28;20113;-58
2021/08/31 17:53:26;;;;;;;16.60;7.50;;;21.20;73.60;;;;;;10332860;28;20050;-58
2021/08/31 17:58:27;;;;;;;17.80;8.48;;;21.20;73.70;;;;;;10352925;28;20026;-58
2021/08/31 18:03:28;;;;;;;19.35;7.18;;;21.20;74.00;;;;;;10350796;28;20027;-58
2021/08/31 18:08:29;;;;;;;19.40;7.07;;;21.20;74.00;;;;;;10369417;28;20034;-58
2021/08/31 18:13:30;;;;;;;16.48;6.32;;;21.20;73.90;;;;;;10357490;28;20382;-57
2021/08/31 18:18:30;;;;;;;14.73;6.25;;;21.20;73.80;;;;;;10341971;28;20030;-57
2021/08/31 18:23:36;;;;;;;12.48;5.95;;;21.20;73.90;;;;;;10349211;28;20029;-58
2021/08/31 18:28:37;;;;;;;13.82;6.65;;;21.20;73.80;;;;;;10362559;28;20129;-58
2021/08/31 18:33:37;;;;;;;14.32;6.07;;;21.20;73.90;;;;;;10355642;28;20042;-58
2021/08/31 18:38:38;;;;;;;10.68;4.65;;;21.10;73.90;;;;;;10359439;28;20402;-59
2021/08/31 18:43:39;;;;;;;10.02;4.80;;;21.20;73.90;;;;;;10362056;28;20107;-58
2021/08/31 18:48:41;;;;;;;12.07;5.88;;;21.20;73.80;;;;;;10345479;28;20035;-58
2021/08/31 18:53:42;;;;;;;9.70;4.72;;;21.20;73.80;;;;;;10339686;28;20038;-58
2021/08/31 18:58:42;;;;;;;9.73;5.30;;;21.20;73.70;;;;;;10362366;28;20135;-58
2021/08/31 19:03:43;;;;;;;9.05;4.95;;;21.20;73.60;;;;;;10357582;28;20122;-58
2021/08/31 19:08:44;;;;;;;10.23;4.63;;;21.20;73.60;;;;;;10347064;28;20040;-58
2021/08/31 19:13:45;;;;;;;10.50;4.78;;;21.10;73.30;;;;;;10348303;28;20061;-58
2021/08/31 19:18:46;;;;;;;13.95;6.13;;;21.20;73.40;;;;;;10368161;28;20093;-58
2021/08/31 19:23:47;;;;;;;9.70;5.07;;;21.10;73.30;;;;;;10352827;28;20547;-58
2021/08/31 19:28:48;;;;;;;12.48;5.15;;;21.20;73.30;;;;;;10348475;28;20125;-58
2021/08/31 19:33:49;;;;;;;8.68;5.57;;;21.10;73.20;;;;;;10353656;28;20130;-58
2021/08/31 19:38:49;;;;;;;10.90;4.38;;;21.20;73.20;;;;;;10352283;28;20034;-57
2021/08/31 19:43:50;;;;;;;12.25;4.95;;;21.20;73.30;;;;;;10351012;28;20045;-58
2021/08/31 19:48:51;;;;;;;8.75;4.60;;;21.20;73.20;;;;;;10346838;28;20030;-58
2021/08/31 19:53:51;;;;;;;11.18;5.32;;;21.20;73.00;;;;;;10336456;28;20038;-58
2021/08/31 19:58:52;;;;;;;5.68;3.85;;;21.10;72.80;;;;;;10334602;28;20391;-56
2021/08/31 20:03:53;;;;;;;10.43;4.95;;;21.10;72.90;;;;;;10339274;28;20118;-57
2021/08/31 20:08:53;;;;;;;9.45;4.72;;;21.10;72.90;;;;;;10335168;28;20461;-59
2021/08/31 20:13:55;;;;;;;8.30;4.57;;;21.10;72.90;;;;;;10335588;28;20475;-58
2021/08/31 20:18:56;;;;;;;7.10;4.30;;;21.10;72.80;;;;;;10342541;28;20464;-58
2021/08/31 20:23:59;;;;;;;8.05;4.85;;;21.10;72.80;;;;;;10335600;28;20088;-58
2021/08/31 20:28:59;;;;;;;7.03;4.60;;;21.10;72.70;;;;;;10363251;28;20032;-58
2021/08/31 20:34:00;;;;;;;5.63;3.78;;;21.10;72.60;;;;;;10366402;28;20038;-58
2021/08/31 20:39:01;;;;;;;7.78;4.70;;;21.00;72.50;;;;;;10335565;28;20053;-58
2021/08/31 20:44:02;;;;;;;6.95;3.97;;;21.10;72.40;;;;;;10333680;28;20078;-58
2021/08/31 20:49:02;;;;;;;9.70;3.90;;;21.00;72.30;;;;;;10335847;28;20089;-57
2021/08/31 20:54:04;;;;;;;5.93;4.00;;;21.00;72.20;;;;;;10334767;28;20080;-58
2021/08/31 20:59:04;;;;;;;8.77;4.63;;;21.00;72.20;;;;;;10334772;28;20065;-58
2021/08/31 21:04:05;;;;;;;10.63;4.00;;;21.00;72.10;;;;;;10349440;28;20073;-58
2021/08/31 21:09:06;;;;;;;9.05;4.57;;;21.00;72.10;;;;;;10337938;28;20072;-58
2021/08/31 21:14:07;;;;;;;6.13;3.83;;;21.00;72.20;;;;;;10333849;28;20037;-57
2021/08/31 21:19:07;;;;;;;11.00;4.88;;;21.00;72.10;;;;;;10356979;28;20121;-59
2021/08/31 21:24:08;;;;;;;8.55;3.78;;;21.00;72.10;;;;;;10333934;28;20038;-57
2021/08/31 21:29:09;;;;;;;6.32;3.47;;;21.00;71.80;;;;;;10333860;28;20113;-58
2021/08/31 21:34:10;;;;;;;5.88;3.75;;;21.00;71.90;;;;;;10333842;28;20042;-58
2021/08/31 21:39:10;;;;;;;5.95;4.10;;;20.90;71.80;;;;;;10332984;28;20030;-58
2021/08/31 21:44:11;;;;;;;6.47;3.75;;;21.00;71.90;;;;;;10332903;28;20129;-58
2021/08/31 21:49:12;;;;;;;7.65;4.30;;;20.90;71.90;;;;;;10349421;28;20113;-58
2021/08/31 21:54:13;;;;;;;8.20;3.97;;;20.90;71.50;;;;;;10342734;28;20687;-58
2021/08/31 21:59:14;;;;;;;7.45;4.57;;;20.90;71.80;;;;;;10332856;28;20054;-57
2021/08/31 22:04:15;;;;;;;6.60;3.95;;;20.90;72.00;;;;;;10332823;28;20045;-58
2021/08/31 22:09:16;;;;;;;6.60;3.42;;;20.90;71.80;;;;;;10345712;28;20041;-57
2021/08/31 22:14:17;;;;;;;4.55;3.05;;;20.90;71.70;;;;;;10338576;28;20034;-58
2021/08/31 22:19:18;;;;;;;5.85;3.83;;;20.90;71.70;;;;;;10343890;28;20109;-57
2021/08/31 22:24:19;;;;;;;6.60;4.22;;;20.90;71.70;;;;;;10331362;28;20141;-58
2021/08/31 22:29:19;;;;;;;7.85;4.28;;;20.90;71.60;;;;;;10338967;28;20026;-58
2021/08/31 22:34:20;;;;;;;6.68;3.83;;;20.90;71.60;;;;;;10368861;28;20367;-58
2021/08/31 22:39:21;;;;;;;4.88;3.25;;;20.90;71.50;;;;;;10332345;28;20487;-57
2021/08/31 22:44:21;;;;;;;5.55;3.95;;;20.90;71.60;;;;;;10331923;28;20038;-57
2021/08/31 22:49:22;;;;;;;5.72;3.60;;;20.90;71.50;;;;;;10334723;28;20066;-57
2021/08/31 22:54:23;;;;;;;5.65;3.38;;;20.90;71.70;;;;;;10339287;28;20115;-57
2021/08/31 22:59:23;;;;;;;6.68;3.83;;;20.90;71.70;;;;;;10339176;28;20066;-57
2021/08/31 23:04:24;;;;;;;5.07;2.92;;;20.90;71.70;;;;;;10350773;28;20145;-58
2021/08/31 23:09:25;;;;;;;7.22;4.32;;;20.90;71.60;;;;;;10349762;28;20076;-58
2021/08/31 23:14:29;;;;;;;6.80;3.47;;;20.90;71.60;;;;;;10338592;28;20445;-57
2021/08/31 23:19:29;;;;;;;6.57;3.42;;;20.90;71.80;;;;;;10349920;28;20037;-57
2021/08/31 23:24:31;;;;;;;5.75;3.63;;;20.80;71.60;;;;;;10345426;28;20505;-58
2021/08/31 23:29:31;;;;;;;6.13;3.70;;;20.90;71.50;;;;;;10347606;28;20038;-58
2021/08/31 23:34:32;;;;;;;8.90;4.03;;;20.80;71.50;;;;;;10337849;28;20252;-58
2021/08/31 23:39:33;;;;;;;7.28;3.95;;;20.80;71.50;;;;;;10350435;28;20505;-58
2021/08/31 23:44:34;;;;;;;6.22;3.75;;;20.80;71.50;;;;;;10366899;28;20184;-58
2021/08/31 23:49:35;;;;;;;9.07;4.15;;;20.80;71.50;;;;;;10377701;28;20018;-57
2021/08/31 23:54:35;;;;;;;6.30;3.78;;;20.80;71.50;;;;;;10362111;28;20034;-58
2021/08/31 23:59:36;;;;;;;6.47;3.65;;;20.80;71.60;;;;;;10337154;28;20027;-57
